AirNav   TITAN Aviation Fuels
 
 1034 users online  

64IL Walpole Airport
Marengo, Illinois, USA

GOING TO MARENGO?


FAA INFORMATION EFFECTIVE 01 DECEMBER 2022

Location

FAA Identifier: 64IL
Lat/Long: 42-14-30.0790N 088-40-00.3420W
42-14.501317N 088-40.005700W
42.2416886,-88.6667617
(estimated)
Elevation: 790 ft. / 241 m (estimated)
Variation: 00W (1985)
From city: 3 miles W of MARENGO, IL
Time zone: UTC -6 (UTC -5 during Daylight Saving Time)
Zip code: 60152

Airport Operations

Airport use: Private use. Permission required prior to landing
Activation date: 09/1970
Control tower: no
ARTCC: CHICAGO CENTER
FSS: KANKAKEE FLIGHT SERVICE STATION
Attendance: UNATNDD
Wind indicator: yes
Segmented circle: no

Airport Communications

WX AWOS-3 at DKB (19 nm S): 119.075 (815-748-2350)
WX ASOS at RFD (19 nm W): PHONE 815-484-6229

Nearby radio navigation aids

VOR radial/distance  VOR name  Freq  Var
DPAr324/25.4DUPAGE VOR/DME108.4002E
JVLr131/27.2JANESVILLE VOR/DME114.3003E
OBKr274/31.8NORTHBROOK VOR/DME113.0002W

Airport Services

Airframe service: NONE
Powerplant service: NONE

Runway Information

Runway E/W

Dimensions: 2640 x 125 ft. / 805 x 38 m
Surface: turf
RUNWAY E  RUNWAY W
Traffic pattern: leftleft

Airport Ownership and Management from official FAA records

Ownership: Privately-owned
Owner: BARBARA J. WALPOLE
1 STRAWBERRY HILL ROAD
MARENGO, IL 60152
Phone 815-568-5393
Manager: BARBARA J. WALPOLE
1 STRAWBERRY HILL ROAD
MARENGO, IL 60152
Phone (319) 471-5415

Additional Remarks

FOR CD CTC CHICAGO ARTCC AT 630-906-8921.

Instrument Procedures

There are no published instrument procedures at 64IL.

Some nearby airports with instrument procedures:

C77 - Poplar Grove Airport (9 nm NW)
3CK - Lake in the Hills Airport (15 nm E)
10C - Galt Field Airport (16 nm NE)
KDKB - De Kalb Taylor Municipal Airport (19 nm S)
KRFD - Chicago/Rockford International Airport (19 nm W)
 
Loc | Ops | Rwys | IFR | FBO | Links
Com | Nav | Svcs | Stats | Notes
Area around 64IL (Walpole Airport)
 
Road maps at: MapQuest Bing Google
 
Aerial photo
No photo
 
Sectional chart

 
Airport distance calculator
Flying to Walpole Airport? Find the distance to fly.

From to 64IL

Sunrise and sunset
Times for 04-Dec-2022
 Local
(UTC-6)
 Zulu
(UTC)
Morning civil twilight06:3712:37
Sunrise07:0813:08
Sunset16:2222:22
Evening civil twilight16:5322:53

Current date and time
Zulu (UTC)  05-Dec-2022 00:27:18
Local (UTC-6)  04-Dec-2022 18:27:18
 
METAR
KDKB 
19nm S 
050015Z AUTO 20011KT 10SM CLR M01/M07 A3003 RMK AO2 T10101070
KRFD 
19nm W 
042354Z 17005KT 10SM FEW250 M01/M09 A3003 RMK AO2 SLP179 T10061094 10039 21033 56015 $
KDPA 
27nm SE 
042352Z 20010KT 10SM CLR 01/M09 A3003 RMK AO2 SLP178 T00111089 10044 20006 56017
KJVL 
27nm NW 
042345Z 22005KT 10SM CLR M01/M09 A3000
KRPJ 
28nm SW 
050015Z AUTO 20009KT 10SM CLR M02/M08 A3004 RMK AO2 T10251077 TSNO
K06C 
29nm SE 
050015Z AUTO 21008G14KT 10SM CLR 02/M06 A3002 RMK AO2 T00151061
KARR 
30nm S 
042352Z 19008KT 10SM CLR 00/M09 A3004 RMK AO2 SLP182 T00001089 10039 20000 56017
KBUU 
31nm NE 
050015Z AUTO 20005KT 10SM CLR M02/M09 A2999 RMK AO2 T10221090 PWINO
KPWK 
35nm E 
042352Z 20010KT 10SM CLR 03/M09 A3003 RMK AO2 SLP177 T00281094 10044 20017 58019
K57C 
36nm N 
050015Z AUTO 23004KT 10SM CLR 00/M08 A2999 RMK AO2 T10051085
TAF
KRFD 
19nm W 
042055Z 0421/0518 22009KT P6SM FEW250 FM050200 21008KT P6SM SCT250 WS010/24035KT FM051200 20011G17KT P6SM BKN100
NOTAMs
Click for the latest NOTAMs
NOTAMs are issued by the DoD/FAA and will open in a separate window not controlled by AirNav.

 

 
 

Would you like to see your business listed on this page?

 If your business provides an interesting product or service to pilots, flight crews, aircraft, or users of the Walpole Airport, you should consider listing it here.  To start the listing process, click on the button below
 
Add a business
 

Other Pages about Walpole Airport

Update a link
 
Copyright © AirNav, LLC. All rights reserved. Privacy Policy  Contact